Aviation Digital Data Service (ADDS)

Output produced by METARs form (1827 UTC 22 November 2017)
found at http://www.aviationweather.gov/adds/metars/
 
TAF MSLP 221525Z 2218/2318 23008KT 9999 FEW060 TX33/2218Z TN21/2310Z 
     FM230000 VRB03KT CAVOK 
     FM230300 02004KT
       
TAF MSSS 221525Z 2218/2318 16007KT 9999 FEW037 TX30/2220Z TN18/2312Z 
     FM230200 34005KT CAVOK